.
WxDataArchive / Data Records for 2013-09-18
2013-09-17 September 2013 2013-09-19

Data Records for Wednesday, 18 September 2013

Time	Temp	Chill	HIndex	Humid	Dewpt	 Wind 	HiWind	WindDir	Rain 	Barom 
-----	----	-----	------	-----	-----	------	------	-------	-----	----- 
00:00	55.3	55.3	55.3	76	47.9	0	1	90	0.00	30.179 
00:05	55.1	55.1	55.1	77	48.0	0	1	90	0.00	30.179 
00:10	55.1	55.1	55.1	77	48.0	0	1	90	0.00	30.179 
00:15	55.0	55.0	55.0	77	47.9	0	0	---	0.00	30.176 
00:20	54.8	54.8	54.8	77	47.7	0	0	---	0.00	30.176 
00:25	54.7	54.7	54.7	78	48.0	0	1	90	0.00	30.176 
00:30	54.7	54.7	54.7	78	48.0	0	2	90	0.00	30.175 
00:35	54.7	54.7	54.7	78	48.0	0	1	90	0.00	30.175 
00:40	54.7	54.7	54.7	78	48.0	0	1	90	0.00	30.175 
00:45	54.5	54.5	54.5	79	48.1	0	0	---	0.00	30.169 
00:50	54.5	54.5	54.5	79	48.1	0	1	90	0.00	30.169 
00:55	54.5	54.5	54.5	79	48.1	0	1	90	0.00	30.169 
01:00	54.5	54.5	54.5	79	48.1	0	2	90	0.00	30.164 
01:05	54.4	54.4	54.4	79	48.0	0	0	---	0.00	30.164 
01:10	54.4	54.4	54.4	79	48.0	0	1	90	0.00	30.164 
01:15	54.4	54.4	54.4	79	48.0	0	1	90	0.00	30.159 
01:20	54.4	54.4	54.4	80	48.4	0	1	90	0.00	30.159 
01:25	54.4	54.4	54.4	80	48.4	0	1	90	0.00	30.159 
01:30	54.2	54.2	54.2	80	48.2	0	1	90	0.00	30.152 
01:35	54.2	54.2	54.2	80	48.2	0	1	90	0.00	30.152 
01:40	54.2	54.2	54.2	80	48.2	0	1	90	0.00	30.152 
01:45	54.2	54.2	54.2	80	48.2	0	1	90	0.00	30.153 
01:50	54.2	54.2	54.2	81	48.5	0	1	90	0.00	30.153 
01:55	54.1	54.1	54.1	81	48.4	0	1	90	0.00	30.153 
02:00	54.1	54.1	54.1	81	48.4	0	0	---	0.00	30.151 
02:05	53.9	53.9	53.9	81	48.2	0	0	---	0.00	30.151 
02:10	53.9	53.9	53.9	81	48.2	0	1	90	0.00	30.151 
02:15	53.8	53.8	53.8	81	48.1	0	0	---	0.00	30.147 
02:20	53.8	53.8	53.8	82	48.4	0	1	90	0.00	30.147 
02:25	53.6	53.6	53.6	82	48.2	0	1	90	0.00	30.147 
02:30	53.6	53.6	53.6	82	48.2	0	1	90	0.00	30.145 
02:35	53.6	53.6	53.6	83	48.6	0	1	90	0.00	30.145 
02:40	53.6	53.6	53.6	83	48.6	0	1	90	0.00	30.145 
02:45	53.5	53.5	53.5	83	48.5	0	0	---	0.00	30.144 
02:50	53.5	53.5	53.5	83	48.5	0	1	90	0.00	30.144 
02:55	53.5	53.5	53.5	84	48.8	0	1	90	0.00	30.144 
03:00	53.5	53.5	53.5	84	48.8	0	1	90	0.00	30.142 
03:05	53.5	53.5	53.5	84	48.8	0	0	---	0.00	30.142 
03:10	53.5	53.5	53.5	84	48.8	0	1	90	0.00	30.142 
03:15	53.5	53.5	53.5	84	48.8	0	0	---	0.00	30.138 
03:20	53.5	53.5	53.5	84	48.8	0	1	90	0.00	30.138 
03:25	53.6	53.6	53.6	84	48.9	0	1	90	0.00	30.138 
03:30	53.6	53.6	53.6	84	48.9	0	1	90	0.00	30.130 
03:35	53.6	53.6	53.6	84	48.9	0	1	90	0.00	30.130 
03:40	53.6	53.6	53.6	84	48.9	0	0	---	0.00	30.130 
03:45	53.6	53.6	53.6	84	48.9	0	0	---	0.00	30.129 
03:50	53.6	53.6	53.6	84	48.9	0	1	90	0.00	30.129 
03:55	53.6	53.6	53.6	84	48.9	0	1	90	0.00	30.129 
04:00	53.6	53.6	53.6	84	48.9	0	0	---	0.00	30.128 
04:05	53.6	53.6	53.6	84	48.9	0	0	---	0.00	30.128 
04:10	53.6	53.6	53.6	84	48.9	0	1	90	0.00	30.128 
04:15	53.6	53.6	53.6	84	48.9	0	0	---	0.00	30.127 
04:20	53.6	53.6	53.6	84	48.9	0	0	---	0.00	30.127 
04:25	53.6	53.6	53.6	84	48.9	0	0	---	0.00	30.127 
04:30	53.6	53.6	53.6	85	49.2	0	0	---	0.00	30.126 
04:35	53.6	53.6	53.6	85	49.2	0	0	---	0.00	30.126 
04:40	53.5	53.5	53.5	85	49.1	0	0	---	0.00	30.126 
04:45	53.5	53.5	53.5	85	49.1	0	0	---	0.00	30.124 
04:50	53.5	53.5	53.5	86	49.4	0	0	---	0.00	30.124 
04:55	53.5	53.5	53.5	86	49.4	0	0	---	0.00	30.124 
05:00	53.5	53.5	53.5	86	49.4	0	0	---	0.00	30.122 
05:05	53.5	53.5	53.5	86	49.4	0	0	---	0.00	30.122 
05:10	53.5	53.5	53.5	86	49.4	0	1	90	0.00	30.122 
05:15	53.5	53.5	53.5	86	49.4	0	0	---	0.00	30.119 
05:20	53.6	53.6	53.6	86	49.5	0	0	---	0.00	30.119 
05:25	53.5	53.5	53.5	86	49.4	0	0	---	0.00	30.119 
05:30	53.5	53.5	53.5	86	49.4	0	1	90	0.00	30.120 
05:35	53.5	53.5	53.5	86	49.4	0	1	90	0.00	30.120 
05:40	53.5	53.5	53.5	86	49.4	0	1	90	0.00	30.120 
05:45	53.5	53.5	53.5	86	49.4	0	1	90	0.00	30.113 
05:50	53.3	53.3	53.3	86	49.2	0	0	---	0.00	30.113 
05:55	53.3	53.3	53.3	86	49.2	0	1	90	0.00	30.113 
06:00	53.3	53.3	53.3	86	49.2	0	1	90	0.00	30.119 
06:05	53.3	53.3	53.3	86	49.2	0	1	90	0.00	30.119 
06:10	53.3	53.3	53.3	87	49.5	0	0	---	0.00	30.119 
06:15	53.3	53.3	53.3	87	49.5	0	1	90	0.00	30.121 
06:20	53.2	53.2	53.2	87	49.4	0	0	---	0.00	30.121 
06:25	53.2	53.2	53.2	87	49.4	0	0	---	0.00	30.121 
06:30	53.3	53.3	53.3	87	49.5	0	0	---	0.00	30.129 
06:35	53.3	53.3	53.3	87	49.5	0	0	---	0.00	30.129 
06:40	53.3	53.3	53.3	88	49.8	0	0	---	0.00	30.129 
06:45	53.3	53.3	53.3	88	49.8	0	0	---	0.00	30.129 
06:50	53.5	53.5	53.5	88	50.0	0	0	---	0.00	30.129 
06:55	53.5	53.5	53.5	88	50.0	0	0	---	0.00	30.129 
07:00	53.5	53.5	53.5	88	50.0	0	0	---	0.00	30.129 
07:05	53.6	53.6	53.6	88	50.1	0	1	90	0.00	30.129 
07:10	53.6	53.6	53.6	87	49.8	0	1	90	0.00	30.129 
07:15	53.6	53.6	53.6	87	49.8	0	1	90	0.00	30.134 
07:20	53.6	53.6	53.6	87	49.8	0	1	90	0.00	30.134 
07:25	53.8	53.8	53.8	87	50.0	0	1	90	0.00	30.134 
07:30	53.8	53.8	53.8	87	50.0	0	0	---	0.00	30.133 
07:35	53.8	53.8	53.8	87	50.0	0	0	---	0.00	30.133 
07:40	53.8	53.8	53.8	87	50.0	0	1	90	0.00	30.133 
07:45	53.9	53.9	53.9	87	50.1	0	0	---	0.00	30.137 
07:50	53.9	53.9	53.9	87	50.1	0	1	90	0.00	30.137 
07:55	53.9	53.9	53.9	87	50.1	0	0	---	0.00	30.137 
08:00	53.9	53.9	53.9	87	50.1	0	0	---	0.00	30.143 
08:05	54.1	54.1	54.1	87	50.3	0	1	90	0.00	30.143 
08:10	54.1	54.1	54.1	87	50.3	0	0	---	0.00	30.143 
08:15	54.2	54.2	54.2	87	50.4	0	1	90	0.00	30.140 
08:20	54.4	54.4	54.4	87	50.6	0	1	90	0.00	30.140 
08:25	54.4	54.4	54.4	87	50.6	0	0	---	0.00	30.140 
08:30	54.5	54.5	54.5	87	50.7	0	1	90	0.00	30.147 
08:35	54.7	54.7	54.7	87	50.9	0	0	---	0.00	30.147 
08:40	54.7	54.7	54.7	87	50.9	0	0	---	0.00	30.147 
08:45	54.8	54.8	54.8	87	51.0	0	0	---	0.00	30.139 
08:50	55.1	55.1	55.1	87	51.3	0	0	---	0.00	30.139 
08:55	55.3	55.3	55.3	86	51.2	0	1	90	0.00	30.139 
09:00	55.3	55.3	55.3	86	51.2	0	1	90	0.00	30.144 
09:05	55.4	55.4	55.4	85	51.0	0	1	90	0.00	30.144 
09:10	55.6	55.6	55.6	85	51.2	0	1	90	0.00	30.144 
09:15	55.7	55.7	55.7	85	51.3	0	1	90	0.00	30.145 
09:20	55.9	55.9	55.9	84	51.1	0	1	90	0.00	30.145 
09:25	56.2	56.2	56.2	84	51.4	0	1	90	0.00	30.145 
09:30	56.3	56.3	56.3	84	51.5	0	1	90	0.00	30.144 
09:35	56.6	56.6	56.6	84	51.8	0	1	90	0.00	30.144 
09:40	56.9	56.9	56.9	83	51.8	0	1	90	0.00	30.144 
09:45	57.0	57.0	57.0	83	51.9	0	1	90	0.00	30.145 
09:50	57.3	57.3	57.3	82	51.9	0	2	90	0.00	30.145 
09:55	57.8	57.8	57.8	82	52.3	0	0	---	0.00	30.145 
10:00	58.1	58.1	58.1	82	52.6	0	0	---	0.00	30.144 
10:05	58.6	58.6	58.6	81	52.8	0	0	---	0.00	30.144 
10:10	59.2	59.2	59.2	79	52.7	0	1	90	0.00	30.144 
10:15	59.9	59.9	59.9	78	53.0	0	1	90	0.00	30.144 
10:20	60.9	60.9	60.9	75	52.9	0	2	90	0.00	30.144 
10:25	62.0	62.0	62.0	73	53.2	0	3	90	0.00	30.144 
10:30	62.7	62.7	62.7	72	53.5	1	3	90	0.00	30.140 
10:35	63.4	63.4	63.4	71	53.8	0	0	---	0.00	30.140 
10:40	64.3	64.3	64.3	68	53.5	1	3	90	0.00	30.140 
10:45	65.0	65.0	65.0	68	54.2	1	2	90	0.00	30.133 
10:50	65.6	65.6	65.6	67	54.3	0	1	90	0.00	30.133 
10:55	66.8	66.8	66.8	65	54.6	0	1	90	0.00	30.133 
11:00	67.8	67.8	67.8	63	54.7	0	2	90	0.00	30.127 
11:05	68.6	68.6	68.6	61	54.6	0	1	90	0.00	30.127 
11:10	69.3	69.3	69.3	61	55.3	0	2	90	0.00	30.127 
11:15	69.9	69.9	69.9	62	56.3	0	1	90	0.00	30.124 
11:20	70.6	70.6	70.6	59	55.6	0	1	90	0.00	30.124 
11:25	71.5	71.5	71.5	56	55.0	0	1	90	0.00	30.124 
11:30	72.0	72.0	72.0	56	55.4	0	1	90	0.00	30.121 
11:35	72.7	72.7	72.7	56	56.1	0	1	90	0.00	30.121 
11:40	72.7	72.7	72.7	53	54.6	0	2	90	0.00	30.121 
11:45	72.5	72.5	72.5	54	54.9	0	1	90	0.00	30.109 
11:50	72.7	72.7	72.7	54	55.1	0	2	90	0.00	30.109 
11:55	72.3	72.3	72.3	53	54.2	0	2	90	0.00	30.109 
12:00	71.8	71.8	71.8	53	53.7	0	2	90	0.00	30.108 
12:05	71.8	71.8	71.8	55	54.7	0	1	90	0.00	30.108 
12:10	72.1	72.1	72.1	54	54.5	0	2	90	0.00	30.108 
12:15	73.0	73.0	73.0	53	54.8	0	1	90	0.00	30.103 
12:20	73.3	73.3	73.3	51	54.1	0	2	90	0.00	30.103 
12:25	74.0	74.0	74.0	51	54.7	1	3	90	0.00	30.103 
12:30	74.7	74.7	74.7	49	54.3	1	3	90	0.00	30.103 
12:35	75.4	75.4	77.8	47	53.7	1	2	90	0.00	30.103 
12:40	75.8	75.8	78.0	48	54.7	0	2	90	0.00	30.103 
12:45	76.0	76.0	78.0	46	53.7	0	1	90	0.00	30.091 
12:50	76.0	76.0	78.0	46	53.7	0	1	90	0.00	30.091 
12:55	76.5	76.5	78.2	45	53.6	0	1	90	0.00	30.091 
13:00	76.8	76.8	78.3	45	53.8	1	3	90	0.00	30.085 
13:05	76.7	76.7	78.3	44	53.1	1	3	90	0.00	30.085 
13:10	77.0	77.0	78.4	45	54.0	0	2	90	0.00	30.085 
13:15	77.6	77.6	78.7	43	53.3	1	3	90	0.00	30.082 
13:20	77.4	77.4	78.6	43	53.1	1	3	90	0.00	30.082 
13:25	77.4	77.4	78.6	44	53.8	1	3	90	0.00	30.082 
13:30	77.4	77.4	78.6	43	53.1	0	2	90	0.00	30.075 
13:35	77.4	77.4	78.5	42	52.5	1	3	90	0.00	30.075 
13:40	77.6	77.6	78.7	44	53.9	0	1	90	0.00	30.075 
13:45	78.1	78.1	78.9	42	53.1	0	3	90	0.00	30.073 
13:50	78.3	78.3	79.1	43	53.9	0	1	90	0.00	30.073 
13:55	78.6	78.6	79.0	40	52.2	0	1	90	0.00	30.073 
14:00	79.0	79.0	79.4	41	53.3	1	2	90	0.00	30.067 
14:05	78.8	78.8	79.4	43	54.4	1	3	90	0.00	30.067 
14:10	78.8	78.8	79.1	39	51.7	0	3	90	0.00	30.067 
14:15	79.2	79.2	79.4	40	52.8	0	1	90	0.00	30.064 
14:20	79.4	79.4	79.5	39	52.3	0	3	90	0.00	30.064 
14:25	79.8	79.8	79.6	37	51.2	0	2	90	0.00	30.064 
14:30	79.8	79.8	79.5	36	50.4	1	2	68	0.00	30.062 
14:35	79.9	79.9	79.5	35	49.8	1	3	68	0.00	30.062 
14:40	79.8	79.8	79.5	36	50.4	1	2	68	0.00	30.062 
14:45	79.9	79.9	79.6	36	50.5	1	2	248	0.00	30.055 
14:50	79.9	79.9	79.6	37	51.3	1	4	90	0.00	30.055 
14:55	79.9	79.9	79.5	35	49.8	0	2	270	0.00	30.055 
15:00	79.8	79.8	79.5	36	50.4	0	2	270	0.00	30.043 
15:05	79.9	79.9	79.5	35	49.8	0	2	270	0.00	30.043 
15:10	80.3	80.3	79.7	35	50.1	1	3	270	0.00	30.043 
15:15	80.5	80.5	79.8	34	49.5	0	2	22	0.00	30.040 
15:20	80.5	80.5	79.6	32	47.9	0	2	22	0.00	30.040 
15:25	80.9	80.9	80.1	34	49.9	0	2	22	0.00	30.040 
15:30	80.7	80.7	79.9	34	49.7	0	1	22	0.00	30.039 
15:35	80.5	80.5	79.7	33	48.7	0	2	22	0.00	30.039 
15:40	79.9	79.9	79.3	32	47.4	0	2	0	0.00	30.039 
15:45	79.9	79.9	79.3	33	48.2	0	3	68	0.00	30.032 
15:50	80.3	80.3	79.5	32	47.7	0	1	68	0.00	30.032 
15:55	80.5	80.5	79.6	32	47.9	0	2	68	0.00	30.032 
16:00	80.7	80.7	79.7	31	47.2	0	1	68	0.00	30.025 
16:05	80.9	80.9	79.7	30	46.5	0	1	68	0.00	30.025 
16:10	80.9	80.9	79.8	31	47.4	1	3	68	0.00	30.025 
16:15	80.5	80.5	79.6	31	47.1	0	2	68	0.00	30.024 
16:20	79.9	79.9	79.1	29	44.8	0	2	45	0.00	30.024 
16:25	79.9	79.9	79.1	30	45.7	0	1	45	0.00	30.024 
16:30	79.9	79.9	79.2	31	46.5	0	2	45	0.00	30.021 
16:35	80.1	80.1	79.3	31	46.7	0	1	45	0.00	30.021 
16:40	79.9	79.9	79.1	30	45.7	0	1	45	0.00	30.021 
16:45	79.9	79.9	79.2	31	46.5	0	3	292	0.00	30.015 
16:50	79.9	79.9	79.3	32	47.4	0	2	292	0.00	30.015 
16:55	79.9	79.9	79.2	31	46.5	1	3	45	0.00	30.015 
17:00	79.9	79.9	79.2	31	46.5	0	2	248	0.00	30.010 
17:05	79.8	79.8	79.3	34	48.9	1	3	248	0.00	30.010 
17:10	79.6	79.6	79.2	34	48.7	0	4	90	0.00	30.010 
17:15	79.0	79.0	78.9	34	48.2	0	2	90	0.00	30.009 
17:20	78.6	78.6	78.8	36	49.4	0	0	---	0.00	30.009 
17:25	78.3	78.3	78.7	37	49.9	0	1	90	0.00	30.009 
17:30	78.1	78.1	78.6	37	49.7	0	1	90	0.00	30.009 
17:35	77.9	77.9	78.5	37	49.5	0	0	---	0.00	30.009 
17:40	77.9	77.9	78.6	38	50.2	0	0	---	0.00	30.009 
17:45	77.9	77.9	78.6	38	50.2	0	1	90	0.00	30.009 
17:50	77.7	77.7	78.4	37	49.3	0	0	---	0.00	30.009 
17:55	77.7	77.7	78.4	37	49.3	0	2	90	0.00	30.009 
18:00	77.9	77.9	78.6	38	50.2	0	0	---	0.00	30.010 
18:05	77.9	77.9	78.6	39	50.9	0	0	---	0.00	30.010 
18:10	77.7	77.7	78.5	39	50.7	0	0	---	0.00	30.010 
18:15	77.7	77.7	78.4	37	49.3	0	1	90	0.00	30.007 
18:20	77.6	77.6	78.4	38	50.0	0	0	---	0.00	30.007 
18:25	77.6	77.6	78.4	38	50.0	0	0	---	0.00	30.007 
18:30	77.7	77.7	78.5	38	50.0	0	0	---	0.00	30.009 
18:35	77.7	77.7	78.5	38	50.0	0	0	---	0.00	30.009 
18:40	77.7	77.7	78.5	39	50.7	0	0	---	0.00	30.009 
18:45	77.7	77.7	78.5	38	50.0	0	1	90	0.00	30.010 
18:50	77.6	77.6	78.3	36	48.5	0	1	90	0.00	30.010 
18:55	77.6	77.6	78.4	37	49.2	0	0	---	0.00	30.010 
19:00	77.2	77.2	78.2	37	48.9	0	0	---	0.00	30.008 
19:05	77.0	77.0	78.1	37	48.7	0	1	90	0.00	30.008 
19:10	76.7	76.7	78.0	38	49.2	0	0	---	0.00	30.008 
19:15	76.1	76.1	77.8	39	49.3	0	0	---	0.00	30.010 
19:20	75.6	75.6	77.6	38	48.2	0	0	---	0.00	30.010 
19:25	75.3	75.3	77.6	40	49.3	0	0	---	0.00	30.010 
19:30	74.7	74.7	74.7	42	50.1	0	0	---	0.00	30.007 
19:35	74.2	74.2	74.2	43	50.2	0	0	---	0.00	30.007 
19:40	73.7	73.7	73.7	43	49.8	0	0	---	0.00	30.007 
19:45	73.2	73.2	73.2	46	51.2	0	0	---	0.00	30.011 
19:50	72.7	72.7	72.7	46	50.7	0	0	---	0.00	30.011 
19:55	72.3	72.3	72.3	47	50.9	0	0	---	0.00	30.011 
20:00	71.6	71.6	71.6	47	50.3	0	0	---	0.00	30.010 
20:05	71.3	71.3	71.3	49	51.1	0	0	---	0.00	30.010 
20:10	70.8	70.8	70.8	49	50.7	0	0	---	0.00	30.010 
20:15	70.4	70.4	70.4	50	50.9	0	0	---	0.00	30.016 
20:20	69.9	69.9	69.9	51	50.9	0	0	---	0.00	30.016 
20:25	69.6	69.6	69.6	52	51.2	0	0	---	0.00	30.016 
20:30	69.1	69.1	69.1	52	50.7	0	0	---	0.00	30.018 
20:35	68.8	68.8	68.8	53	51.0	0	0	---	0.00	30.018 
20:40	68.4	68.4	68.4	55	51.6	0	0	---	0.00	30.018 
20:45	68.1	68.1	68.1	56	51.8	0	0	---	0.00	30.021 
20:50	67.9	67.9	67.9	57	52.1	0	0	---	0.00	30.021 
20:55	67.6	67.6	67.6	56	51.3	0	0	---	0.00	30.021 
21:00	67.4	67.4	67.4	59	52.6	0	0	---	0.00	30.020 
21:05	67.1	67.1	67.1	59	52.3	0	0	---	0.00	30.020 
21:10	66.8	66.8	66.8	60	52.5	0	0	---	0.00	30.020 
21:15	66.6	66.6	66.6	62	53.2	0	0	---	0.00	30.016 
21:20	66.3	66.3	66.3	62	52.9	0	0	---	0.00	30.016 
21:25	66.1	66.1	66.1	62	52.7	0	0	---	0.00	30.016 
21:30	66.0	66.0	66.0	64	53.5	0	0	---	0.00	30.015 
21:35	65.8	65.8	65.8	64	53.3	0	0	---	0.00	30.015 
21:40	65.6	65.6	65.6	64	53.1	0	0	---	0.00	30.015 
21:45	65.5	65.5	65.5	65	53.4	0	0	---	0.00	30.015 
21:50	65.5	65.5	65.5	65	53.4	0	0	---	0.00	30.015 
21:55	65.3	65.3	65.3	65	53.2	0	0	---	0.00	30.015 
22:00	65.2	65.2	65.2	65	53.1	0	0	---	0.00	30.016 
22:05	65.0	65.0	65.0	66	53.4	0	0	---	0.00	30.016 
22:10	65.0	65.0	65.0	66	53.4	0	0	---	0.00	30.016 
22:15	65.0	65.0	65.0	65	52.9	0	0	---	0.00	30.006 
22:20	65.2	65.2	65.2	65	53.1	0	0	---	0.00	30.006 
22:25	65.2	65.2	65.2	66	53.5	0	0	---	0.00	30.006 
22:30	65.3	65.3	65.3	66	53.6	0	0	---	0.00	30.002 
22:35	65.3	65.3	65.3	66	53.6	0	0	---	0.00	30.002 
22:40	65.3	65.3	65.3	64	52.8	0	0	---	0.00	30.002 
22:45	65.5	65.5	65.5	64	53.0	0	0	---	0.00	30.006 
22:50	65.5	65.5	65.5	63	52.6	0	0	---	0.00	30.006 
22:55	65.5	65.5	65.5	62	52.1	0	0	---	0.00	30.006 
23:00	65.5	65.5	65.5	63	52.6	0	0	---	0.00	30.008 
23:05	65.5	65.5	65.5	65	53.4	0	0	---	0.00	30.008 
23:10	65.5	65.5	65.5	65	53.4	0	0	---	0.00	30.008 
23:15	65.5	65.5	65.5	65	53.4	0	0	---	0.00	30.007 
23:20	65.5	65.5	65.5	65	53.4	0	0	---	0.00	30.007 
23:25	65.3	65.3	65.3	65	53.2	0	0	---	0.00	30.007 
23:30	65.2	65.2	65.2	65	53.1	0	0	---	0.00	30.013 
23:35	65.2	65.2	65.2	66	53.5	0	0	---	0.00	30.013 
23:40	65.0	65.0	65.0	66	53.4	0	0	---	0.00	30.013 
23:45	65.0	65.0	65.0	67	53.8	0	0	---	0.00	30.011 
23:50	65.0	65.0	65.0	68	54.2	0	0	---	0.00	30.011 
23:55	65.0	65.0	65.0	67	53.8	0	0	---	0.00	30.011 

CoCoRaHS
IN-AL-39
A2 Web Hosting
Creative Commons License
GoDaddy
search engine by freefind advanced

loaded 2018-11-14 00:06:12 • last modified 2010-11-18 10:43:29
Privacy PolicyDisclaimer
• wx.awcolley.com is powered by PmWiki v.2002016 •
• all content (unless otherwise noted) © 2018 A W Colley